Time;durP1;ratioP1;P1;durP2;ratioP2;P2;SDS_P1;SDS_P2;PMS_P1;PMS_P2;Temp;Humidity;BMP_temperature;BMP_pressure;BME280_temperature;BME280_humidity;BME280_pressure;Samples;Min_cycle;Max_cycle;Signal;HPM_P1;HPM_P2
2023/05/31 00:02:16;;;;;;;9.90;4.40;;;12.00;99.90;;;;;;5110051;28;20036;-84
2023/05/31 00:04:42;;;;;;;10.90;3.00;;;12.00;99.90;;;;;;5109841;28;20071;-85
2023/05/31 00:07:08;;;;;;;9.13;2.75;;;12.00;99.90;;;;;;5110961;28;20107;-85
2023/05/31 00:09:34;;;;;;;8.30;2.80;;;12.00;99.90;;;;;;5109728;28;20101;-84
2023/05/31 00:12:00;;;;;;;7.93;2.47;;;11.90;99.90;;;;;;5110881;28;20051;-84
2023/05/31 00:14:26;;;;;;;8.27;3.10;;;11.90;99.90;;;;;;5109850;28;20055;-84
2023/05/31 00:16:52;;;;;;;7.38;3.00;;;11.90;99.90;;;;;;5109936;28;20036;-84
2023/05/31 00:19:18;;;;;;;9.40;3.00;;;11.90;99.90;;;;;;5110989;28;20055;-84
2023/05/31 00:21:45;;;;;;;8.55;3.25;;;11.80;99.90;;;;;;5109652;28;20039;-85
2023/05/31 00:24:11;;;;;;;8.75;3.03;;;11.80;99.90;;;;;;5109704;28;20048;-84
2023/05/31 00:26:36;;;;;;;11.30;3.10;;;11.80;99.90;;;;;;5110057;28;20047;-84
2023/05/31 00:29:02;;;;;;;10.38;3.67;;;11.70;99.90;;;;;;5109551;28;20049;-84
2023/05/31 00:31:28;;;;;;;9.02;3.40;;;11.70;99.90;;;;;;5109380;28;20093;-84
2023/05/31 00:33:53;;;;;;;8.75;2.90;;;11.70;99.90;;;;;;5109846;28;20550;-84
2023/05/31 00:36:19;;;;;;;10.80;5.47;;;11.70;99.90;;;;;;5109784;28;20408;-85
2023/05/31 00:38:45;;;;;;;8.25;2.63;;;11.70;99.90;;;;;;5109675;28;20039;-85
2023/05/31 00:41:10;;;;;;;9.15;3.70;;;11.70;99.90;;;;;;5092292;28;20043;-85
2023/05/31 00:43:36;;;;;;;10.57;3.15;;;11.70;99.90;;;;;;5113522;28;20047;-85
2023/05/31 00:46:02;;;;;;;8.13;3.03;;;11.70;99.90;;;;;;5113691;28;20201;-85
2023/05/31 00:48:29;;;;;;;9.48;3.70;;;11.60;99.90;;;;;;5113530;28;20039;-84
2023/05/31 00:50:55;;;;;;;10.75;6.13;;;11.60;99.90;;;;;;5113337;28;20054;-83
2023/05/31 00:53:22;;;;;;;9.35;3.72;;;11.70;99.90;;;;;;5113396;28;20048;-83
2023/05/31 00:55:49;;;;;;;11.18;3.25;;;11.70;99.90;;;;;;5113486;28;20118;-83
2023/05/31 00:58:16;;;;;;;8.57;3.47;;;11.70;99.90;;;;;;5113502;28;20047;-83
2023/05/31 01:00:42;;;;;;;12.20;3.75;;;11.60;99.90;;;;;;5113286;28;20404;-83
2023/05/31 01:03:08;;;;;;;9.93;4.57;;;11.60;99.90;;;;;;5113282;28;20039;-83
2023/05/31 01:05:35;;;;;;;8.50;3.25;;;11.60;99.90;;;;;;5114480;28;20107;-83
2023/05/31 01:08:02;;;;;;;9.90;3.25;;;11.60;99.90;;;;;;5114582;28;20133;-83
2023/05/31 01:10:29;;;;;;;8.73;4.45;;;11.60;99.90;;;;;;5112740;28;20159;-83
2023/05/31 01:13:20;;;;;;;10.50;3.78;;;11.50;99.90;;;;;;5113191;28;20641;-83
2023/05/31 01:15:55;;;;;;;10.60;6.82;;;11.50;99.90;;;;;;5113057;28;20137;-83
2023/05/31 01:18:26;;;;;;;10.13;3.95;;;11.60;99.90;;;;;;5112947;28;20432;-83
2023/05/31 01:20:54;;;;;;;10.32;3.55;;;11.60;99.90;;;;;;5112713;28;20047;-83
2023/05/31 01:23:29;;;;;;;9.68;3.35;;;11.50;99.90;;;;;;5114299;28;20057;-83
2023/05/31 01:26:32;;;;;;;8.90;3.38;;;11.50;99.90;;;;;;5114055;28;20408;-83
2023/05/31 01:29:13;;;;;;;9.05;3.53;;;11.50;99.90;;;;;;5112601;28;20046;-83
2023/05/31 01:31:41;;;;;;;9.60;3.72;;;11.50;99.90;;;;;;5112448;28;20059;-83
2023/05/31 01:34:06;;;;;;;11.00;3.92;;;11.50;99.90;;;;;;5112792;28;20039;-83
2023/05/31 01:36:32;;;;;;;14.95;3.63;;;11.40;99.90;;;;;;5113883;28;20046;-83
2023/05/31 01:39:00;;;;;;;11.23;4.03;;;11.50;99.90;;;;;;5112603;28;20036;-83
2023/05/31 01:41:28;;;;;;;11.63;3.42;;;11.50;99.90;;;;;;5112417;28;20184;-83
2023/05/31 01:43:54;;;;;;;13.60;4.57;;;11.50;99.90;;;;;;5112537;28;20092;-83
2023/05/31 01:46:20;;;;;;;11.80;4.05;;;11.40;99.90;;;;;;5112452;28;20039;-83
2023/05/31 01:48:47;;;;;;;9.65;3.90;;;11.40;99.90;;;;;;5112171;28;20055;-83
2023/05/31 01:51:15;;;;;;;9.45;3.60;;;11.40;99.90;;;;;;5112137;28;20044;-83
2023/05/31 01:53:41;;;;;;;12.38;3.92;;;11.40;99.90;;;;;;5111938;28;20040;-83
2023/05/31 01:56:08;;;;;;;11.40;3.97;;;11.40;99.90;;;;;;5113562;28;20031;-83
2023/05/31 01:58:36;;;;;;;12.65;4.15;;;11.40;99.90;;;;;;5095164;28;20067;-83
2023/05/31 02:01:02;;;;;;;10.25;4.13;;;11.30;99.90;;;;;;5112012;28;20118;-83
2023/05/31 02:03:28;;;;;;;11.38;3.92;;;11.30;99.90;;;;;;5095002;28;20047;-83
2023/05/31 02:06:00;;;;;;;11.63;4.13;;;11.30;99.90;;;;;;5112260;28;20107;-83
2023/05/31 02:08:27;;;;;;;12.38;4.28;;;11.30;99.90;;;;;;5111944;28;20043;-83
2023/05/31 02:10:54;;;;;;;11.82;4.15;;;11.30;99.90;;;;;;5111769;28;20475;-83
2023/05/31 02:13:23;;;;;;;10.88;3.40;;;11.30;99.90;;;;;;5111861;28;20065;-83
2023/05/31 02:15:48;;;;;;;9.55;3.47;;;11.30;99.90;;;;;;5113072;28;20036;-83
2023/05/31 02:18:16;;;;;;;11.30;3.95;;;11.30;99.90;;;;;;5111765;28;20654;-83
2023/05/31 02:20:43;;;;;;;11.13;4.13;;;11.20;99.90;;;;;;5111438;28;20039;-83
2023/05/31 02:23:09;;;;;;;9.32;3.58;;;11.20;99.90;;;;;;5111917;28;20454;-83
2023/05/31 02:25:35;;;;;;;10.93;3.72;;;11.20;99.90;;;;;;5111582;28;20043;-83
2023/05/31 02:28:00;;;;;;;10.60;4.13;;;11.20;99.90;;;;;;5110855;28;20636;-83
2023/05/31 02:30:27;;;;;;;9.68;3.72;;;11.20;99.90;;;;;;5111418;28;20063;-83
2023/05/31 02:32:53;;;;;;;11.65;4.70;;;11.20;99.90;;;;;;5111850;28;20118;-82
2023/05/31 02:35:19;;;;;;;12.05;3.60;;;11.10;99.90;;;;;;5111574;28;20047;-83
2023/05/31 02:37:46;;;;;;;12.95;4.60;;;11.10;99.90;;;;;;5112814;28;20096;-82
2023/05/31 02:40:12;;;;;;;12.52;3.60;;;11.10;99.90;;;;;;5111087;28;20527;-83
2023/05/31 02:42:40;;;;;;;10.40;4.53;;;11.10;99.90;;;;;;5111221;28;20047;-83
2023/05/31 02:45:07;;;;;;;11.18;4.45;;;11.10;99.90;;;;;;5111706;28;20115;-82
2023/05/31 02:47:33;;;;;;;11.65;4.03;;;11.10;99.90;;;;;;5111361;28;20039;-83
2023/05/31 02:49:59;;;;;;;10.73;4.50;;;11.00;99.90;;;;;;5110991;28;20492;-82
2023/05/31 02:52:26;;;;;;;12.68;4.28;;;11.00;99.90;;;;;;5111147;28;20169;-83
2023/05/31 02:54:52;;;;;;;9.57;4.18;;;10.90;99.90;;;;;;5112395;28;20404;-83
2023/05/31 02:57:17;;;;;;;10.82;4.45;;;10.90;99.90;;;;;;5111023;28;20039;-83
2023/05/31 02:59:44;;;;;;;12.18;4.55;;;10.90;99.90;;;;;;5111923;28;20050;-83
2023/05/31 03:02:10;;;;;;;12.00;4.47;;;10.90;99.90;;;;;;5110969;28;20051;-83
2023/05/31 03:04:36;;;;;;;11.65;4.93;;;10.90;99.90;;;;;;5093299;28;20043;-83
2023/05/31 03:07:02;;;;;;;10.63;4.22;;;10.80;99.90;;;;;;5110884;28;20095;-83
2023/05/31 03:09:28;;;;;;;12.65;4.70;;;10.80;99.90;;;;;;5111817;28;20042;-83
2023/05/31 03:11:54;;;;;;;11.73;4.43;;;10.80;99.90;;;;;;5111712;28;20736;-83
2023/05/31 03:14:20;;;;;;;12.88;4.65;;;10.80;99.90;;;;;;5110732;28;20135;-83
2023/05/31 03:16:46;;;;;;;13.75;4.88;;;10.80;99.90;;;;;;5110756;28;20042;-83
2023/05/31 03:19:14;;;;;;;15.23;5.45;;;10.80;99.90;;;;;;5111669;28;20046;-83
2023/05/31 03:21:40;;;;;;;12.02;4.78;;;10.70;99.90;;;;;;5110409;28;20044;-83
2023/05/31 03:24:06;;;;;;;11.90;4.70;;;10.70;99.90;;;;;;5110628;28;20042;-83
2023/05/31 03:26:31;;;;;;;12.13;5.28;;;10.70;99.90;;;;;;5110476;28;20039;-83
2023/05/31 03:28:57;;;;;;;13.10;4.47;;;10.70;99.90;;;;;;5093110;28;20112;-83
2023/05/31 03:31:23;;;;;;;10.85;4.20;;;10.70;99.90;;;;;;5109960;28;20406;-83
2023/05/31 03:33:50;;;;;;;12.38;4.97;;;10.70;99.90;;;;;;5093602;28;20035;-83
2023/05/31 03:36:16;;;;;;;12.50;5.63;;;10.70;99.90;;;;;;5110284;28;20031;-83
2023/05/31 03:38:41;;;;;;;15.38;4.47;;;10.70;99.90;;;;;;5110352;28;20050;-83
2023/05/31 03:41:07;;;;;;;9.93;4.22;;;10.70;99.90;;;;;;5109969;28;20119;-82
2023/05/31 03:43:33;;;;;;;10.75;4.18;;;10.70;99.90;;;;;;5110207;28;20070;-83
2023/05/31 03:46:01;;;;;;;12.77;4.68;;;10.70;99.90;;;;;;5110323;28;20043;-83
2023/05/31 03:48:29;;;;;;;13.43;4.88;;;10.70;99.90;;;;;;5109983;28;20043;-84
2023/05/31 03:50:56;;;;;;;17.92;6.47;;;10.70;99.90;;;;;;5109716;28;20103;-85
2023/05/31 03:53:22;;;;;;;14.15;4.97;;;10.70;99.90;;;;;;5093353;28;20733;-85
2023/05/31 03:55:48;;;;;;;12.93;4.95;;;10.70;99.90;;;;;;5110114;28;20036;-85
2023/05/31 03:58:13;;;;;;;17.92;10.27;;;10.70;99.90;;;;;;5110042;28;20172;-85
2023/05/31 04:00:41;;;;;;;13.38;5.25;;;10.80;99.90;;;;;;5109940;28;20436;-85
2023/05/31 04:03:07;;;;;;;12.68;4.43;;;10.90;99.90;;;;;;5109996;28;20078;-85
2023/05/31 04:05:33;;;;;;;13.75;4.45;;;10.80;99.90;;;;;;5109861;28;20503;-85
2023/05/31 04:08:02;;;;;;;13.15;4.82;;;10.80;99.90;;;;;;5109996;28;20122;-85
2023/05/31 04:10:27;;;;;;;15.32;5.45;;;10.80;99.90;;;;;;5109338;28;20047;-85
2023/05/31 04:12:53;;;;;;;12.90;5.30;;;10.80;99.90;;;;;;5110029;28;20035;-85
2023/05/31 04:15:19;;;;;;;15.23;4.30;;;10.80;99.90;;;;;;5109829;28;20040;-85
2023/05/31 04:17:45;;;;;;;13.07;5.22;;;10.80;99.90;;;;;;5114220;28;20181;-84
2023/05/31 04:20:12;;;;;;;12.57;5.57;;;10.80;99.90;;;;;;5113596;28;20054;-84
2023/05/31 04:22:37;;;;;;;14.50;4.88;;;10.80;99.90;;;;;;5097130;28;20039;-85
2023/05/31 04:25:03;;;;;;;10.82;4.68;;;10.80;99.90;;;;;;5114018;28;20043;-83
2023/05/31 04:27:32;;;;;;;12.95;5.10;;;10.90;99.90;;;;;;5113952;28;20080;-83
2023/05/31 04:29:58;;;;;;;11.77;4.57;;;10.90;99.90;;;;;;5113519;28;20051;-83
2023/05/31 04:32:24;;;;;;;13.10;4.63;;;10.90;99.90;;;;;;5113787;28;20055;-82
2023/05/31 04:34:57;;;;;;;14.32;5.53;;;11.00;99.90;;;;;;5114146;28;20039;-83
2023/05/31 04:37:26;;;;;;;14.15;4.40;;;11.00;99.90;;;;;;5114877;28;20400;-83
2023/05/31 04:39:52;;;;;;;13.23;4.85;;;11.10;99.90;;;;;;5096478;28;20119;-83
2023/05/31 04:42:18;;;;;;;13.77;5.53;;;11.10;99.90;;;;;;5114967;28;20043;-83
2023/05/31 04:44:45;;;;;;;13.85;4.47;;;11.10;99.90;;;;;;5114895;28;20039;-83
2023/05/31 04:47:11;;;;;;;13.98;4.68;;;11.20;99.90;;;;;;5096580;28;20377;-83
2023/05/31 04:49:36;;;;;;;14.63;9.20;;;11.20;99.90;;;;;;5114531;28;20116;-83
2023/05/31 04:52:02;;;;;;;11.88;5.10;;;11.30;99.90;;;;;;5096710;28;20480;-83
2023/05/31 04:54:28;;;;;;;13.15;4.88;;;11.40;99.90;;;;;;5096679;28;20043;-83
2023/05/31 04:56:54;;;;;;;12.57;4.22;;;11.40;99.90;;;;;;5096772;28;20374;-83
2023/05/31 04:59:20;;;;;;;13.07;4.65;;;11.40;99.90;;;;;;5096114;28;20050;-83
2023/05/31 05:01:45;;;;;;;13.10;5.35;;;11.40;99.90;;;;;;5096166;28;20043;-83
2023/05/31 05:04:11;;;;;;;10.43;5.00;;;11.50;99.90;;;;;;5096423;28;20152;-83
2023/05/31 05:06:37;;;;;;;15.73;10.25;;;11.50;99.90;;;;;;5114634;28;20039;-83
2023/05/31 05:09:03;;;;;;;10.85;4.20;;;11.70;99.90;;;;;;5096303;28;20437;-83
2023/05/31 05:11:29;;;;;;;13.50;5.47;;;11.70;99.90;;;;;;5095696;28;20086;-83
2023/05/31 05:13:54;;;;;;;12.82;5.45;;;11.70;99.90;;;;;;5079077;28;20068;-83
2023/05/31 05:16:20;;;;;;;11.70;4.70;;;11.70;99.90;;;;;;5096263;28;20078;-83
2023/05/31 05:18:45;;;;;;;11.23;4.30;;;11.80;99.90;;;;;;5095977;28;20529;-83
2023/05/31 05:21:11;;;;;;;12.07;5.38;;;11.80;99.90;;;;;;5113887;28;20036;-83
2023/05/31 05:23:39;;;;;;;12.80;5.18;;;11.90;99.90;;;;;;5096036;28;20100;-83
2023/05/31 05:26:05;;;;;;;11.93;4.95;;;11.90;99.90;;;;;;5095680;28;20079;-83
2023/05/31 05:28:30;;;;;;;11.85;5.10;;;12.00;99.90;;;;;;5094305;28;20047;-83
2023/05/31 05:30:56;;;;;;;13.90;6.03;;;12.10;99.90;;;;;;5095460;28;20046;-83
2023/05/31 05:33:22;;;;;;;14.32;5.60;;;12.10;99.90;;;;;;5095776;28;20101;-83
2023/05/31 05:35:47;;;;;;;13.70;5.15;;;12.20;99.90;;;;;;5079047;28;20409;-83
2023/05/31 05:38:13;;;;;;;13.52;5.88;;;12.20;99.90;;;;;;5095865;28;20044;-83
2023/05/31 05:40:38;;;;;;;14.70;5.80;;;12.30;99.90;;;;;;5095314;28;20059;-83
2023/05/31 05:43:05;;;;;;;15.98;10.02;;;12.40;99.90;;;;;;5095747;28;20127;-83
2023/05/31 05:45:30;;;;;;;12.73;5.38;;;12.50;99.90;;;;;;5096363;27;20493;-83
2023/05/31 05:47:56;;;;;;;18.33;5.95;;;12.60;99.90;;;;;;5104714;27;20090;-83
2023/05/31 05:50:22;;;;;;;14.73;6.35;;;12.60;99.90;;;;;;5087339;27;20054;-83
2023/05/31 05:52:48;;;;;;;15.77;7.30;;;12.70;99.90;;;;;;5106041;27;20436;-83
2023/05/31 05:55:13;;;;;;;14.68;5.78;;;12.80;99.90;;;;;;5104963;27;20050;-83
2023/05/31 05:57:39;;;;;;;15.45;5.82;;;12.80;99.90;;;;;;5104527;27;20039;-85
2023/05/31 06:00:11;;;;;;;19.25;11.05;;;12.90;99.90;;;;;;5105549;27;20031;-85
2023/05/31 06:02:38;;;;;;;17.10;5.88;;;13.00;99.90;;;;;;5105223;27;20122;-85
2023/05/31 06:05:04;;;;;;;13.82;5.47;;;13.10;99.90;;;;;;5103712;27;20042;-83
2023/05/31 06:07:30;;;;;;;14.70;6.32;;;13.20;99.90;;;;;;5113240;27;20062;-83
2023/05/31 06:09:56;;;;;;;14.80;6.85;;;13.20;99.90;;;;;;5078660;28;20447;-83
2023/05/31 06:12:22;;;;;;;18.10;6.63;;;13.30;99.90;;;;;;5095756;28;20055;-83
2023/05/31 06:14:48;;;;;;;14.80;5.95;;;13.40;99.90;;;;;;5095849;28;20043;-83
2023/05/31 06:17:14;;;;;;;15.57;10.38;;;13.40;99.90;;;;;;5095805;28;20043;-83
2023/05/31 06:19:40;;;;;;;15.32;6.07;;;13.60;99.90;;;;;;5095355;28;20071;-83
2023/05/31 06:22:06;;;;;;;12.98;6.07;;;13.60;99.90;;;;;;5095827;28;20075;-84
2023/05/31 06:24:32;;;;;;;18.90;10.70;;;13.70;99.90;;;;;;5095956;28;20520;-85
2023/05/31 06:26:57;;;;;;;13.05;6.40;;;13.80;99.90;;;;;;5113856;28;20504;-83
2023/05/31 06:29:23;;;;;;;16.58;10.20;;;13.90;99.90;;;;;;5095606;28;20040;-83
2023/05/31 06:31:49;;;;;;;16.33;9.98;;;14.00;99.90;;;;;;5095105;28;20092;-83
2023/05/31 06:34:14;;;;;;;15.77;5.38;;;14.20;99.90;;;;;;5100173;27;20103;-83
2023/05/31 06:36:42;;;;;;;13.88;5.07;;;14.20;99.90;;;;;;5123555;27;20050;-83
2023/05/31 06:39:07;;;;;;;17.50;6.80;;;14.20;99.90;;;;;;5106141;28;20084;-83
2023/05/31 06:41:34;;;;;;;16.33;9.27;;;14.30;99.90;;;;;;5115043;27;20121;-83
2023/05/31 06:44:01;;;;;;;16.20;6.18;;;14.50;99.90;;;;;;5115600;27;20070;-84
2023/05/31 06:46:27;;;;;;;15.30;8.65;;;14.50;99.90;;;;;;5115710;27;20046;-83
2023/05/31 06:48:53;;;;;;;16.02;8.80;;;14.70;99.90;;;;;;5115395;27;20070;-83
2023/05/31 06:51:20;;;;;;;16.48;8.70;;;14.80;99.90;;;;;;5115161;27;20064;-84
2023/05/31 06:53:46;;;;;;;14.40;5.05;;;14.90;99.90;;;;;;5115533;27;20047;-83
2023/05/31 06:56:12;;;;;;;15.15;9.48;;;15.00;99.90;;;;;;5115405;27;20122;-84
2023/05/31 06:58:37;;;;;;;14.70;8.85;;;15.00;99.90;;;;;;5115712;27;20400;-83
2023/05/31 07:01:03;;;;;;;14.45;9.02;;;15.10;99.90;;;;;;5115015;27;20054;-84
2023/05/31 07:03:28;;;;;;;15.20;9.35;;;15.30;99.90;;;;;;5115422;27;20047;-84
2023/05/31 07:05:54;;;;;;;13.07;6.15;;;15.40;99.90;;;;;;5115232;27;20045;-84
2023/05/31 07:08:20;;;;;;;14.85;9.25;;;15.40;99.90;;;;;;5115342;27;20041;-84
2023/05/31 07:10:45;;;;;;;14.63;8.80;;;15.50;99.90;;;;;;5097261;27;20047;-84
2023/05/31 07:13:11;;;;;;;14.32;6.65;;;15.60;99.90;;;;;;5115224;27;20075;-84
2023/05/31 07:15:37;;;;;;;16.08;9.07;;;15.70;99.90;;;;;;5115355;27;20042;-84
2023/05/31 07:18:03;;;;;;;17.23;9.05;;;15.80;99.90;;;;;;5115348;27;20035;-84
2023/05/31 07:20:28;;;;;;;14.57;9.02;;;15.90;99.90;;;;;;5114546;27;20484;-84
2023/05/31 07:22:54;;;;;;;16.23;9.20;;;15.90;99.90;;;;;;5114881;27;20412;-84
2023/05/31 07:25:20;;;;;;;12.52;5.82;;;16.10;99.90;;;;;;5115003;27;20054;-84
2023/05/31 07:27:46;;;;;;;14.27;8.48;;;16.10;99.90;;;;;;5133116;27;20031;-83
2023/05/31 07:30:11;;;;;;;14.15;5.38;;;16.20;99.90;;;;;;5114785;27;20381;-84
2023/05/31 07:32:37;;;;;;;15.13;8.82;;;16.20;99.90;;;;;;5114337;27;20116;-84
2023/05/31 07:35:03;;;;;;;14.23;8.70;;;16.30;99.90;;;;;;5114958;27;20067;-84
2023/05/31 07:37:29;;;;;;;15.15;8.45;;;16.40;99.90;;;;;;5114891;27;20392;-84
2023/05/31 07:39:55;;;;;;;12.95;5.30;;;16.50;99.90;;;;;;5113606;27;20039;-84
2023/05/31 07:42:20;;;;;;;13.18;7.65;;;16.60;99.90;;;;;;5114561;27;20473;-84
2023/05/31 07:44:48;;;;;;;14.88;6.70;;;16.60;99.90;;;;;;5132855;27;20035;-84
2023/05/31 07:47:15;;;;;;;15.30;8.73;;;16.70;99.90;;;;;;5114794;27;20035;-83
2023/05/31 07:49:40;;;;;;;12.38;7.38;;;16.70;99.90;;;;;;5114144;27;20055;-83
2023/05/31 07:52:07;;;;;;;13.90;7.65;;;16.80;99.90;;;;;;5132665;27;20047;-84
2023/05/31 07:54:32;;;;;;;12.25;4.93;;;16.90;99.90;;;;;;5114495;27;20454;-84
2023/05/31 07:56:58;;;;;;;14.45;7.85;;;17.00;99.90;;;;;;5114796;27;20193;-83
2023/05/31 07:59:24;;;;;;;11.98;6.82;;;17.10;99.90;;;;;;5114410;27;20083;-83
2023/05/31 08:01:49;;;;;;;12.80;6.70;;;17.20;99.90;;;;;;5132622;27;20043;-83
2023/05/31 08:04:15;;;;;;;15.18;7.07;;;17.30;99.90;;;;;;5114403;28;20534;-83
2023/05/31 08:06:41;;;;;;;12.85;7.10;;;17.40;99.90;;;;;;5114224;28;20046;-84
2023/05/31 08:09:08;;;;;;;12.98;7.30;;;17.40;99.90;;;;;;5113630;27;20496;-83
2023/05/31 08:11:37;;;;;;;13.00;7.10;;;17.50;99.90;;;;;;5130855;28;20404;-83
2023/05/31 08:14:05;;;;;;;10.95;6.40;;;17.60;99.90;;;;;;5113782;28;20571;-84
2023/05/31 08:16:32;;;;;;;13.75;6.57;;;17.70;99.90;;;;;;5131794;28;20046;-84
2023/05/31 08:18:58;;;;;;;12.95;6.05;;;17.80;99.90;;;;;;5113550;28;20035;-84
2023/05/31 08:21:23;;;;;;;14.38;6.93;;;17.90;99.90;;;;;;5132276;28;20118;-84
2023/05/31 08:23:49;;;;;;;12.45;5.97;;;18.00;99.90;;;;;;5114241;28;20050;-84
2023/05/31 08:26:15;;;;;;;10.68;5.90;;;18.10;99.90;;;;;;5114507;28;20047;-83
2023/05/31 08:28:41;;;;;;;11.90;4.88;;;18.20;99.90;;;;;;5114005;28;20046;-84
2023/05/31 08:31:07;;;;;;;12.73;5.63;;;18.30;99.70;;;;;;5113838;28;20049;-84
2023/05/31 08:33:32;;;;;;;14.20;5.35;;;18.30;99.90;;;;;;5114002;28;20031;-84
2023/05/31 08:35:59;;;;;;;9.63;4.72;;;18.40;97.80;;;;;;5132572;28;20039;-83
2023/05/31 08:38:26;;;;;;;11.98;5.60;;;18.50;97.30;;;;;;5114053;28;20106;-84
2023/05/31 08:40:52;;;;;;;12.75;5.68;;;18.60;97.20;;;;;;5113762;28;20065;-83
2023/05/31 08:43:21;;;;;;;11.48;5.15;;;18.70;96.50;;;;;;5114291;28;20027;-83
2023/05/31 08:45:49;;;;;;;13.35;5.50;;;18.70;96.00;;;;;;5113968;28;20050;-84
2023/05/31 08:48:33;;;;;;;12.57;5.10;;;18.80;96.00;;;;;;5114095;28;20118;-83
2023/05/31 08:51:00;;;;;;;10.93;5.03;;;18.90;95.90;;;;;;5113576;28;20046;-83
2023/05/31 08:53:26;;;;;;;11.38;5.10;;;19.00;95.10;;;;;;5110339;28;20054;-84
2023/05/31 08:55:53;;;;;;;11.93;5.35;;;19.10;94.40;;;;;;5125396;28;20043;-84
2023/05/31 08:58:20;;;;;;;11.30;4.95;;;19.20;93.20;;;;;;5093574;28;20052;-84
2023/05/31 09:00:46;;;;;;;10.02;4.35;;;19.30;92.70;;;;;;5093190;28;20066;-83
2023/05/31 09:03:12;;;;;;;10.70;4.30;;;19.30;92.00;;;;;;5094724;28;20500;-84
2023/05/31 09:05:38;;;;;;;10.32;4.70;;;19.40;92.40;;;;;;5105170;27;20107;-84
2023/05/31 09:08:03;;;;;;;12.60;5.40;;;19.50;91.50;;;;;;5117523;27;20042;-83
2023/05/31 09:10:30;;;;;;;11.55;4.72;;;19.60;90.20;;;;;;5117249;27;20147;-84
2023/05/31 09:12:56;;;;;;;10.23;4.30;;;19.60;90.10;;;;;;5117380;27;20039;-83
2023/05/31 09:15:27;;;;;;;9.18;4.40;;;19.70;90.00;;;;;;5117071;27;20035;-83
2023/05/31 09:17:55;;;;;;;11.80;5.05;;;19.80;88.40;;;;;;5100509;27;20046;-83
2023/05/31 09:20:31;;;;;;;13.30;5.50;;;19.80;87.90;;;;;;5117027;27;20047;-84
2023/05/31 09:22:56;;;;;;;9.85;4.85;;;19.90;87.50;;;;;;5117359;27;20050;-84
2023/05/31 09:25:22;;;;;;;12.55;5.40;;;19.90;86.50;;;;;;5117233;27;20039;-84
2023/05/31 09:27:47;;;;;;;10.10;4.65;;;20.00;86.80;;;;;;5100310;27;20046;-84
2023/05/31 09:30:14;;;;;;;12.13;4.57;;;20.10;86.80;;;;;;5116837;27;20091;-84
2023/05/31 09:32:40;;;;;;;11.15;4.90;;;20.20;85.50;;;;;;5117077;27;20429;-84
2023/05/31 09:35:10;;;;;;;11.35;4.32;;;20.30;84.90;;;;;;5117224;27;20038;-84
2023/05/31 09:37:48;;;;;;;9.85;3.97;;;20.30;83.30;;;;;;5135300;27;20039;-84
2023/05/31 09:40:24;;;;;;;12.63;5.13;;;20.40;84.20;;;;;;5087718;28;20043;-84
2023/05/31 09:42:51;;;;;;;10.60;4.32;;;20.50;83.40;;;;;;5113565;28;20178;-84
2023/05/31 09:45:18;;;;;;;10.88;4.32;;;20.60;82.90;;;;;;5113465;28;20071;-84
2023/05/31 09:47:44;;;;;;;11.85;4.55;;;20.70;81.90;;;;;;5111755;28;20042;-84
2023/05/31 09:50:11;;;;;;;9.40;3.80;;;20.80;81.20;;;;;;5113236;28;20069;-84
2023/05/31 09:52:40;;;;;;;10.75;4.20;;;20.80;81.30;;;;;;5095408;28;20117;-83
2023/05/31 09:55:11;;;;;;;9.75;4.60;;;20.90;81.30;;;;;;5095980;28;20039;-84
2023/05/31 09:57:41;;;;;;;15.85;5.22;;;21.00;80.50;;;;;;5114225;28;20043;-83
2023/05/31 10:00:15;;;;;;;10.55;4.47;;;21.10;80.30;;;;;;5095430;28;20044;-84
2023/05/31 10:02:46;;;;;;;9.60;3.45;;;21.20;78.70;;;;;;5078912;28;20043;-83
2023/05/31 10:05:12;;;;;;;10.10;4.35;;;21.30;79.10;;;;;;5095752;28;20043;-84
2023/05/31 10:07:40;;;;;;;11.45;4.20;;;21.30;78.60;;;;;;5078680;28;20087;-84
2023/05/31 10:10:07;;;;;;;10.50;4.68;;;21.40;78.10;;;;;;5095127;28;20043;-83
2023/05/31 10:12:39;;;;;;;9.50;4.22;;;21.50;77.70;;;;;;5078573;28;20150;-83
2023/05/31 10:15:09;;;;;;;11.02;4.00;;;21.60;77.40;;;;;;5078229;28;20036;-84
2023/05/31 10:17:42;;;;;;;10.07;3.97;;;21.70;77.70;;;;;;5095504;28;20110;-83
2023/05/31 10:20:11;;;;;;;13.18;4.72;;;21.80;76.70;;;;;;5094985;28;20039;-83
2023/05/31 10:22:40;;;;;;;9.52;3.90;;;21.90;76.60;;;;;;5095205;28;20092;-83
2023/05/31 10:25:29;;;;;;;11.68;4.40;;;22.00;75.50;;;;;;5095316;28;20051;-83
2023/05/31 10:27:59;;;;;;;10.90;3.92;;;22.10;74.70;;;;;;5046476;28;20051;-84
2023/05/31 10:30:31;;;;;;;9.82;4.22;;;22.10;74.80;;;;;;5095004;28;20471;-84
2023/05/31 10:33:06;;;;;;;11.38;4.03;;;22.20;74.40;;;;;;5094971;28;20043;-84
2023/05/31 10:35:31;;;;;;;11.07;4.13;;;22.30;73.00;;;;;;5095057;28;20035;-84
2023/05/31 10:37:58;;;;;;;12.32;4.38;;;22.40;72.70;;;;;;5094884;28;20050;-84
2023/05/31 10:40:33;;;;;;;11.68;4.38;;;22.50;73.50;;;;;;5094593;28;20105;-84
2023/05/31 10:43:08;;;;;;;10.10;4.25;;;22.60;73.30;;;;;;5095034;28;20050;-83
2023/05/31 10:45:48;;;;;;;11.20;4.40;;;22.70;73.80;;;;;;5094885;28;20630;-83
2023/05/31 10:48:22;;;;;;;9.95;3.90;;;22.80;73.00;;;;;;5094989;28;20047;-84
2023/05/31 10:50:59;;;;;;;13.32;5.13;;;22.90;71.80;;;;;;5112641;28;20200;-84
2023/05/31 10:53:29;;;;;;;12.35;3.75;;;22.90;71.40;;;;;;5113010;28;20040;-83
2023/05/31 10:56:04;;;;;;;11.55;3.70;;;23.00;71.30;;;;;;5094726;28;20520;-84
2023/05/31 10:58:30;;;;;;;10.68;4.05;;;23.10;71.80;;;;;;5077842;28;20524;-84
2023/05/31 11:00:57;;;;;;;13.05;4.72;;;23.20;70.60;;;;;;5094167;28;20069;-83
2023/05/31 11:03:27;;;;;;;10.95;4.05;;;23.30;70.60;;;;;;5094572;28;20157;-84
2023/05/31 11:06:00;;;;;;;11.95;4.18;;;23.40;70.70;;;;;;5094495;28;20040;-84
2023/05/31 11:08:27;;;;;;;11.38;3.95;;;23.50;69.90;;;;;;5112615;28;20058;-84
2023/05/31 11:11:13;;;;;;;9.20;3.88;;;23.60;70.10;;;;;;5077025;28;20046;-84
2023/05/31 11:13:59;;;;;;;10.60;3.97;;;23.70;69.90;;;;;;5077250;28;20039;-84
2023/05/31 11:16:26;;;;;;;10.43;4.10;;;23.80;69.00;;;;;;5094489;28;20054;-84
2023/05/31 11:19:05;;;;;;;11.35;4.18;;;23.80;68.70;;;;;;5094119;28;20039;-84
2023/05/31 11:21:51;;;;;;;10.77;4.15;;;23.90;67.80;;;;;;5112223;28;20054;-84
2023/05/31 11:24:57;;;;;;;9.73;3.90;;;23.90;68.00;;;;;;5112157;28;20073;-84
2023/05/31 11:27:48;;;;;;;10.93;4.25;;;24.10;68.10;;;;;;5093925;28;20476;-85
2023/05/31 11:30:14;;;;;;;10.30;3.47;;;24.10;67.50;;;;;;5093576;28;20497;-85
2023/05/31 11:32:40;;;;;;;13.10;3.78;;;24.20;67.40;;;;;;5094272;28;20136;-85
2023/05/31 11:35:08;;;;;;;10.60;4.05;;;24.40;66.80;;;;;;5093816;28;20502;-85
2023/05/31 11:37:37;;;;;;;9.43;3.92;;;24.50;66.40;;;;;;5112463;28;20439;-85
2023/05/31 11:40:08;;;;;;;9.25;3.60;;;24.60;65.80;;;;;;5093960;28;20084;-85
2023/05/31 11:42:39;;;;;;;9.73;4.78;;;24.60;65.20;;;;;;5093894;28;20089;-85
2023/05/31 11:45:11;;;;;;;11.57;4.28;;;24.60;65.20;;;;;;5093740;28;20122;-85
2023/05/31 11:48:00;;;;;;;11.30;5.07;;;24.70;65.50;;;;;;5094086;28;20039;-84
2023/05/31 11:50:26;;;;;;;12.95;5.10;;;24.80;65.80;;;;;;5093771;28;20404;-85
2023/05/31 11:52:54;;;;;;;9.52;4.22;;;25.00;65.20;;;;;;5093383;28;20048;-84
2023/05/31 11:55:20;;;;;;;10.70;3.83;;;25.10;64.20;;;;;;5093398;28;20044;-84
2023/05/31 11:57:54;;;;;;;11.05;4.60;;;25.10;65.10;;;;;;5093698;28;20118;-85
2023/05/31 12:00:22;;;;;;;11.02;4.45;;;25.20;64.40;;;;;;5093306;28;20508;-85
2023/05/31 12:02:53;;;;;;;11.95;4.50;;;25.20;64.60;;;;;;5092584;28;20073;-84
2023/05/31 12:05:19;;;;;;;12.07;5.00;;;25.30;65.20;;;;;;5093791;28;20501;-84
2023/05/31 12:07:46;;;;;;;13.25;4.78;;;25.40;65.70;;;;;;5094319;28;20126;-85
2023/05/31 12:10:12;;;;;;;11.40;5.13;;;25.50;65.20;;;;;;5112219;28;20044;-85
2023/05/31 12:12:41;;;;;;;11.93;4.43;;;25.50;64.60;;;;;;5094253;28;20119;-85
2023/05/31 12:15:08;;;;;;;11.77;4.28;;;25.50;65.20;;;;;;5094277;28;20435;-85
2023/05/31 12:17:34;;;;;;;11.98;4.30;;;25.60;65.20;;;;;;5094086;28;20043;-85
2023/05/31 12:20:00;;;;;;;12.27;4.88;;;25.70;65.20;;;;;;5093550;28;20039;-85
2023/05/31 12:22:29;;;;;;;11.73;4.72;;;25.90;65.10;;;;;;5093708;28;20051;-85
2023/05/31 12:24:55;;;;;;;9.35;4.40;;;25.90;63.80;;;;;;5105218;28;20511;-85
2023/05/31 12:27:22;;;;;;;11.45;4.32;;;25.90;64.10;;;;;;5114114;28;20100;-85
2023/05/31 12:29:48;;;;;;;11.68;4.47;;;26.00;63.80;;;;;;5110465;28;20553;-85
2023/05/31 12:32:18;;;;;;;10.20;4.35;;;26.10;64.20;;;;;;5100226;28;20076;-85
2023/05/31 12:34:43;;;;;;;9.77;4.40;;;26.20;64.20;;;;;;5102795;28;20051;-85
2023/05/31 12:37:10;;;;;;;11.82;5.03;;;26.30;64.20;;;;;;5108440;28;20039;-84
2023/05/31 12:39:37;;;;;;;11.85;4.78;;;26.40;63.70;;;;;;5113922;27;20088;-85
2023/05/31 12:42:05;;;;;;;10.20;4.22;;;26.50;62.60;;;;;;5118168;27;20568;-85